createdAt,value
2022-08-29T00:00:32.361Z,47.30
2022-08-29T00:03:01.164Z,47.20
2022-08-29T00:05:32.021Z,47.20
2022-08-29T00:08:00.804Z,47.20
2022-08-29T00:10:29.287Z,47.10
2022-08-29T00:12:57.646Z,47.10
2022-08-29T00:15:24.990Z,47.10
2022-08-29T00:17:51.684Z,47.10
2022-08-29T00:20:21.876Z,47.30
2022-08-29T00:22:58.411Z,47.40
2022-08-29T00:25:26.489Z,47.90
2022-08-29T00:27:53.410Z,48.10
2022-08-29T00:30:21.651Z,48.70
2022-08-29T00:32:48.566Z,49.10
2022-08-29T00:35:19.156Z,49.20
2022-08-29T00:37:45.918Z,49.00
2022-08-29T00:40:17.656Z,48.80
2022-08-29T00:42:44.419Z,49.00
2022-08-29T00:45:13.000Z,49.50
2022-08-29T00:47:44.864Z,50.30
2022-08-29T00:50:19.529Z,52.10
2022-08-29T00:52:48.470Z,53.30
2022-08-29T00:55:20.237Z,52.20
2022-08-29T00:57:53.065Z,50.90
2022-08-29T01:00:20.076Z,50.20
2022-08-29T01:02:48.187Z,49.90
2022-08-29T01:05:16.191Z,49.50
2022-08-29T01:07:44.839Z,49.20
2022-08-29T01:10:33.013Z,49.70
2022-08-29T01:13:00.256Z,51.50
2022-08-29T01:15:30.472Z,52.20
2022-08-29T01:17:59.072Z,51.10
2022-08-29T01:20:44.865Z,50.50
2022-08-29T01:23:40.476Z,50.70
2022-08-29T01:26:10.397Z,51.90
2022-08-29T01:28:41.641Z,50.80
2022-08-29T01:31:37.534Z,50.50
2022-08-29T01:34:04.922Z,50.30
2022-08-29T01:37:00.512Z,50.00
2022-08-29T01:39:32.247Z,50.60
2022-08-29T01:42:01.285Z,52.10
2022-08-29T01:44:28.323Z,51.70
2022-08-29T01:47:02.731Z,51.50
2022-08-29T01:49:31.368Z,50.80
2022-08-29T01:51:58.115Z,50.70
2022-08-29T01:54:24.840Z,50.30
2022-08-29T01:56:53.126Z,50.10
2022-08-29T01:59:27.007Z,49.90
2022-08-29T02:02:02.840Z,49.90
2022-08-29T02:04:30.055Z,50.20
2022-08-29T02:06:57.954Z,50.70
2022-08-29T02:09:26.010Z,50.30
2022-08-29T02:11:54.294Z,50.70
2022-08-29T02:14:21.924Z,51.50
2022-08-29T02:16:48.693Z,51.30
2022-08-29T02:19:16.348Z,51.20
2022-08-29T02:21:43.245Z,51.40
2022-08-29T02:24:24.972Z,50.50
2022-08-29T02:26:54.262Z,51.60
2022-08-29T02:29:20.935Z,53.50
2022-08-29T02:31:47.663Z,52.40
2022-08-29T02:34:14.919Z,52.80
2022-08-29T02:36:41.736Z,53.20
2022-08-29T02:39:10.815Z,52.30
2022-08-29T02:41:37.814Z,51.50
2022-08-29T02:44:05.046Z,51.20
2022-08-29T02:46:31.990Z,51.70
2022-08-29T02:49:01.215Z,52.80
2022-08-29T02:51:31.412Z,53.60
2022-08-29T02:53:59.281Z,52.80
2022-08-29T02:56:26.175Z,52.70
2022-08-29T02:58:52.913Z,52.30
2022-08-29T03:01:21.646Z,51.60
2022-08-29T03:03:50.251Z,51.20
2022-08-29T03:06:17.517Z,51.40
2022-08-29T03:08:44.263Z,52.10
2022-08-29T03:11:11.016Z,52.20
2022-08-29T03:13:38.505Z,51.70
2022-08-29T03:16:05.757Z,51.50
2022-08-29T03:18:33.799Z,51.90
2022-08-29T03:21:00.717Z,51.40
2022-08-29T03:23:27.500Z,53.10
2022-08-29T03:25:55.335Z,53.90
2022-08-29T03:28:22.082Z,53.00
2022-08-29T03:30:49.405Z,52.50
2022-08-29T03:33:17.114Z,52.90
2022-08-29T03:35:43.862Z,53.30
2022-08-29T03:38:10.559Z,54.10
2022-08-29T03:40:40.029Z,54.30
2022-08-29T03:43:06.813Z,54.30
2022-08-29T03:45:33.582Z,54.80
2022-08-29T03:48:00.279Z,54.30
2022-08-29T03:50:26.961Z,53.30
2022-08-29T03:52:53.668Z,53.40
2022-08-29T03:55:20.789Z,54.60
2022-08-29T03:57:47.854Z,56.10
2022-08-29T04:00:16.852Z,57.10
2022-08-29T04:02:48.390Z,56.90
2022-08-29T04:05:17.981Z,55.80
2022-08-29T04:07:51.010Z,54.70
2022-08-29T04:10:27.306Z,55.30
2022-08-29T04:12:55.033Z,54.80
2022-08-29T04:15:23.697Z,53.80
2022-08-29T04:17:54.094Z,53.20
2022-08-29T04:20:25.920Z,53.40
2022-08-29T04:22:54.530Z,55.50
2022-08-29T04:25:22.645Z,55.70
2022-08-29T04:27:49.638Z,56.70
2022-08-29T04:30:19.297Z,56.40
2022-08-29T04:32:46.190Z,56.10
2022-08-29T04:35:13.949Z,55.10
2022-08-29T04:37:41.747Z,54.40
2022-08-29T04:40:10.947Z,54.80
2022-08-29T04:42:38.582Z,54.60
2022-08-29T04:45:06.891Z,53.90
2022-08-29T04:47:36.672Z,53.30
2022-08-29T04:50:04.107Z,53.10
2022-08-29T04:52:30.857Z,52.70
2022-08-29T04:54:57.788Z,52.40
2022-08-29T04:57:24.791Z,52.90
2022-08-29T05:00:08.567Z,52.30
2022-08-29T05:02:35.336Z,52.40
2022-08-29T05:05:04.687Z,52.50
2022-08-29T05:07:31.394Z,52.70
2022-08-29T05:10:04.213Z,52.70
2022-08-29T05:12:33.675Z,52.90
2022-08-29T05:15:01.021Z,53.10
2022-08-29T05:17:28.194Z,53.50
2022-08-29T05:19:55.404Z,53.50
2022-08-29T05:22:22.312Z,53.50
2022-08-29T05:24:50.033Z,53.30
2022-08-29T05:27:22.193Z,53.70
2022-08-29T05:29:51.484Z,54.50
2022-08-29T05:32:20.782Z,54.00
2022-08-29T05:34:49.246Z,53.50
2022-08-29T05:37:19.787Z,53.50
2022-08-29T05:39:47.339Z,53.20
2022-08-29T05:42:17.091Z,53.20
2022-08-29T05:44:44.296Z,54.00
2022-08-29T05:47:12.786Z,55.10
2022-08-29T05:49:41.926Z,56.30
2022-08-29T05:52:10.381Z,56.30
2022-08-29T05:54:39.358Z,55.80
2022-08-29T05:57:08.249Z,56.10
2022-08-29T05:59:35.603Z,55.60
2022-08-29T06:02:02.609Z,55.40
2022-08-29T06:04:30.475Z,55.90
2022-08-29T06:06:57.224Z,55.90
2022-08-29T06:09:23.969Z,55.40
2022-08-29T06:11:53.118Z,55.50
2022-08-29T06:14:20.208Z,55.20
2022-08-29T06:16:46.997Z,54.60
2022-08-29T06:19:13.946Z,54.70
2022-08-29T06:21:41.031Z,55.70
2022-08-29T06:24:08.188Z,55.20
2022-08-29T06:26:35.435Z,54.50
2022-08-29T06:29:06.314Z,54.00
2022-08-29T06:31:33.224Z,54.20
2022-08-29T06:34:03.248Z,53.70
2022-08-29T06:36:31.273Z,53.10
2022-08-29T06:38:59.946Z,52.70
2022-08-29T06:41:27.514Z,52.70
2022-08-29T06:43:57.488Z,53.00
2022-08-29T06:46:31.539Z,53.60
2022-08-29T06:49:00.347Z,53.40
2022-08-29T06:51:32.662Z,54.20
2022-08-29T06:54:05.030Z,54.30
2022-08-29T06:56:34.492Z,54.50
2022-08-29T06:59:04.893Z,54.10
2022-08-29T07:01:31.846Z,53.90
2022-08-29T07:04:04.401Z,54.10
2022-08-29T07:06:32.412Z,54.50
2022-08-29T07:09:00.051Z,54.40
2022-08-29T07:11:30.098Z,54.50
2022-08-29T07:14:00.231Z,54.00
2022-08-29T07:16:27.981Z,53.80
2022-08-29T07:18:55.274Z,53.70
2022-08-29T07:21:24.301Z,53.80
2022-08-29T07:23:52.457Z,54.20
2022-08-29T07:26:28.845Z,54.50
2022-08-29T07:28:59.549Z,56.00
2022-08-29T07:31:30.849Z,57.00
2022-08-29T07:34:02.327Z,57.60
2022-08-29T07:36:31.098Z,56.60
2022-08-29T07:38:57.910Z,56.30
2022-08-29T07:41:25.438Z,56.00
2022-08-29T07:43:52.233Z,55.80
2022-08-29T07:46:20.388Z,56.30
2022-08-29T07:48:48.232Z,54.80
2022-08-29T07:51:17.625Z,54.90
2022-08-29T07:53:45.128Z,54.60
2022-08-29T07:56:14.580Z,56.00
2022-08-29T07:58:41.621Z,53.90
2022-08-29T08:01:09.643Z,53.60
2022-08-29T08:03:42.444Z,53.60
2022-08-29T08:06:10.926Z,53.20
2022-08-29T08:08:38.847Z,53.10
2022-08-29T08:11:08.720Z,53.50
2022-08-29T08:13:36.332Z,54.00
2022-08-29T08:16:08.887Z,53.70
2022-08-29T08:18:38.391Z,53.60
2022-08-29T08:21:06.565Z,54.20
2022-08-29T08:23:33.388Z,53.80
2022-08-29T08:26:00.956Z,53.20
2022-08-29T08:28:29.153Z,52.80
2022-08-29T08:30:56.625Z,53.10
2022-08-29T08:33:23.585Z,55.20
2022-08-29T08:35:50.661Z,53.60
2022-08-29T08:38:18.320Z,53.60
2022-08-29T08:41:00.731Z,52.60
2022-08-29T08:43:52.342Z,52.30
2022-08-29T08:46:43.158Z,52.60
2022-08-29T08:49:25.857Z,53.80
2022-08-29T08:52:06.621Z,54.60
2022-08-29T08:54:42.594Z,53.30
2022-08-29T08:57:12.461Z,52.70
2022-08-29T08:59:45.327Z,53.80
2022-08-29T09:02:18.189Z,53.80
2022-08-29T09:05:19.591Z,52.70
2022-08-29T09:08:06.082Z,52.90
2022-08-29T09:10:59.165Z,52.30
2022-08-29T09:16:03.027Z,52.10
2022-08-29T09:18:41.629Z,52.10
2022-08-29T09:21:39.581Z,50.70
2022-08-29T09:24:08.615Z,50.70
2022-08-29T09:26:35.434Z,51.20
2022-08-29T09:29:02.923Z,50.60
2022-08-29T09:31:33.007Z,50.40
2022-08-29T09:34:12.115Z,50.10
2022-08-29T09:36:48.663Z,50.00
2022-08-29T09:39:33.773Z,49.40
2022-08-29T09:42:23.048Z,48.80
2022-08-29T09:44:56.806Z,48.60
2022-08-29T09:47:32.856Z,48.60
2022-08-29T09:50:18.836Z,48.60
2022-08-29T09:53:00.588Z,48.60
2022-08-29T09:55:32.346Z,47.90
2022-08-29T09:58:01.972Z,47.80
2022-08-29T10:00:39.057Z,47.90
2022-08-29T10:03:10.127Z,47.30
2022-08-29T10:05:42.392Z,47.20
2022-08-29T10:08:28.111Z,47.10
2022-08-29T10:10:58.692Z,46.90
2022-08-29T10:13:45.902Z,46.30
2022-08-29T10:16:28.045Z,45.80
2022-08-29T10:19:03.349Z,45.90
2022-08-29T10:22:08.527Z,44.80
2022-08-29T10:24:55.609Z,45.10
2022-08-29T10:27:32.430Z,44.10
2022-08-29T10:30:14.130Z,44.30
2022-08-29T10:32:58.805Z,42.90
2022-08-29T10:35:35.474Z,43.60
2022-08-29T10:38:38.952Z,42.60
2022-08-29T10:41:14.527Z,43.80
2022-08-29T10:43:57.944Z,43.00
2022-08-29T10:46:42.678Z,43.50
2022-08-29T10:49:35.837Z,43.10
2022-08-29T10:52:19.652Z,43.20
2022-08-29T10:55:01.318Z,42.90
2022-08-29T10:58:03.801Z,40.20
2022-08-29T11:00:43.563Z,41.00
2022-08-29T11:03:40.283Z,41.70
2022-08-29T11:06:15.188Z,39.50
2022-08-29T11:08:46.824Z,39.40
2022-08-29T11:11:20.708Z,40.10
2022-08-29T11:13:52.781Z,39.80
2022-08-29T11:16:28.663Z,40.60
2022-08-29T11:19:02.343Z,39.50
2022-08-29T11:21:35.148Z,39.20
2022-08-29T11:24:04.145Z,39.00
2022-08-29T11:26:43.759Z,37.60
2022-08-29T11:29:50.934Z,38.40
2022-08-29T11:32:27.587Z,39.10
2022-08-29T11:35:18.289Z,36.00
2022-08-29T11:38:12.284Z,36.00
2022-08-29T11:43:53.591Z,35.50
2022-08-29T11:46:39.531Z,37.00
2022-08-29T11:49:35.960Z,38.60
2022-08-29T11:52:08.423Z,38.50
2022-08-29T11:54:35.094Z,37.40
2022-08-29T11:57:31.967Z,36.90
2022-08-29T12:00:01.766Z,36.80
2022-08-29T12:02:28.418Z,35.20
2022-08-29T12:04:59.193Z,35.80
2022-08-29T12:07:48.021Z,36.30
2022-08-29T12:10:26.338Z,36.10
2022-08-29T12:12:58.890Z,33.90
2022-08-29T12:15:37.416Z,35.10
2022-08-29T12:18:13.205Z,35.10
2022-08-29T12:20:52.427Z,32.30
2022-08-29T12:23:25.012Z,32.20
2022-08-29T12:26:16.262Z,31.00
2022-08-29T12:28:45.290Z,32.00
2022-08-29T12:31:38.317Z,34.30
2022-08-29T12:34:23.626Z,35.40
2022-08-29T12:37:34.635Z,36.00
2022-08-29T12:40:28.079Z,36.30
2022-08-29T12:43:20.200Z,31.80
2022-08-29T12:45:48.884Z,29.90
2022-08-29T12:48:24.612Z,30.10
2022-08-29T12:50:52.772Z,32.40
2022-08-29T12:53:27.803Z,32.30
2022-08-29T12:56:00.439Z,30.70
2022-08-29T12:58:38.682Z,28.30
2022-08-29T13:01:16.761Z,27.80
2022-08-29T13:04:09.749Z,31.90
2022-08-29T13:06:37.578Z,33.20
2022-08-29T13:09:06.479Z,31.70
2022-08-29T13:11:33.844Z,32.40
2022-08-29T13:14:13.535Z,33.40
2022-08-29T13:16:40.664Z,31.20
2022-08-29T13:19:21.463Z,31.30
2022-08-29T13:21:48.336Z,29.10
2022-08-29T13:24:20.595Z,28.00
2022-08-29T13:27:05.516Z,27.90
2022-08-29T13:29:41.942Z,28.40
2022-08-29T13:32:26.770Z,27.40
2022-08-29T13:35:21.461Z,27.50
2022-08-29T13:38:16.452Z,27.00
2022-08-29T13:40:49.384Z,32.10
2022-08-29T13:43:36.094Z,31.60
2022-08-29T13:46:27.215Z,32.70
2022-08-29T13:49:03.508Z,29.80
2022-08-29T13:51:30.642Z,31.10
2022-08-29T13:53:57.419Z,30.30
2022-08-29T13:56:33.698Z,30.90
2022-08-29T13:59:00.622Z,27.70
2022-08-29T14:02:07.080Z,26.60
2022-08-29T14:04:36.860Z,26.60
2022-08-29T14:07:02.363Z,25.80
2022-08-29T14:09:39.153Z,26.10
2022-08-29T14:12:07.011Z,25.50
2022-08-29T14:14:33.770Z,26.80
2022-08-29T14:17:00.675Z,26.70
2022-08-29T14:19:29.155Z,26.10
2022-08-29T14:22:00.270Z,25.80
2022-08-29T14:24:29.245Z,25.60
2022-08-29T14:27:01.634Z,25.80
2022-08-29T14:29:33.844Z,25.50
2022-08-29T14:32:03.469Z,25.80
2022-08-29T14:34:32.533Z,25.50
2022-08-29T14:37:01.257Z,25.90
2022-08-29T14:39:28.504Z,25.50
2022-08-29T14:41:55.692Z,26.00
2022-08-29T14:44:22.966Z,25.60
2022-08-29T14:46:50.499Z,25.70
2022-08-29T14:49:17.884Z,27.60
2022-08-29T14:51:44.865Z,26.10
2022-08-29T14:54:12.630Z,27.00
2022-08-29T14:56:50.559Z,25.40
2022-08-29T14:59:19.854Z,25.20
2022-08-29T15:01:51.326Z,26.00
2022-08-29T15:04:27.416Z,25.90
2022-08-29T15:07:02.448Z,25.20
2022-08-29T15:09:29.167Z,25.70
2022-08-29T15:11:55.880Z,24.90
2022-08-29T15:14:22.567Z,26.00
2022-08-29T15:16:49.293Z,25.60
2022-08-29T15:20:17.806Z,25.40
2022-08-29T15:22:03.167Z,25.10
2022-08-29T15:24:29.982Z,25.80
2022-08-29T15:26:57.271Z,25.40
2022-08-29T15:29:24.460Z,25.20
2022-08-29T15:31:57.041Z,24.70
2022-08-29T15:34:27.631Z,24.90
2022-08-29T15:36:55.845Z,25.10
2022-08-29T15:39:23.403Z,25.20
2022-08-29T15:41:50.149Z,25.60
2022-08-29T15:44:16.906Z,25.20
2022-08-29T15:46:50.949Z,25.50
2022-08-29T15:49:18.932Z,26.50
2022-08-29T15:51:46.193Z,26.00
2022-08-29T15:54:13.501Z,25.50
2022-08-29T15:56:40.452Z,26.00
2022-08-29T15:59:10.192Z,26.80
2022-08-29T16:01:43.619Z,25.70
2022-08-29T16:04:10.717Z,25.10
2022-08-29T16:06:38.772Z,24.90
2022-08-29T16:09:15.356Z,25.00
2022-08-29T16:11:44.602Z,25.00
2022-08-29T16:16:58.484Z,25.70
2022-08-29T16:19:25.601Z,25.80
2022-08-29T16:21:52.755Z,25.70
2022-08-29T16:24:21.692Z,26.30
2022-08-29T16:26:48.378Z,25.90
2022-08-29T16:29:15.075Z,26.00
2022-08-29T16:31:51.805Z,26.00
2022-08-29T16:34:18.893Z,25.70
2022-08-29T16:36:45.559Z,25.60
2022-08-29T16:39:13.292Z,25.40
2022-08-29T16:41:40.324Z,25.80
2022-08-29T16:44:08.155Z,26.20
2022-08-29T16:46:34.880Z,25.70
2022-08-29T16:49:03.051Z,26.10
2022-08-29T16:51:29.728Z,25.80
2022-08-29T16:53:59.824Z,26.10
2022-08-29T16:56:27.218Z,25.90
2022-08-29T16:58:59.992Z,26.50
2022-08-29T17:01:27.467Z,27.00
2022-08-29T17:03:54.471Z,26.50
2022-08-29T17:06:21.485Z,26.20
2022-08-29T17:08:48.158Z,26.30
2022-08-29T17:11:15.560Z,26.70
2022-08-29T17:13:42.878Z,26.30
2022-08-29T17:16:10.572Z,26.10
2022-08-29T17:18:38.055Z,26.00
2022-08-29T17:21:05.417Z,26.30
2022-08-29T17:23:33.278Z,26.20
2022-08-29T17:26:00.789Z,26.30
2022-08-29T17:28:27.587Z,26.30
2022-08-29T17:30:55.034Z,26.40
2022-08-29T17:33:21.943Z,26.30
2022-08-29T17:35:48.684Z,26.70
2022-08-29T17:38:15.947Z,26.80
2022-08-29T17:40:43.148Z,26.70
2022-08-29T17:43:10.326Z,26.80
2022-08-29T17:45:37.396Z,27.00
2022-08-29T17:48:05.109Z,27.10
2022-08-29T17:50:32.608Z,27.30
2022-08-29T17:52:59.329Z,27.40
2022-08-29T17:55:29.943Z,27.30
2022-08-29T17:57:58.677Z,27.70
2022-08-29T18:00:25.606Z,27.90
2022-08-29T18:02:52.763Z,27.90
2022-08-29T18:05:19.667Z,27.90
2022-08-29T18:07:46.473Z,27.90
2022-08-29T18:10:15.500Z,28.00
2022-08-29T18:12:42.340Z,28.20
2022-08-29T18:15:10.356Z,28.30
2022-08-29T18:17:38.233Z,28.20
2022-08-29T18:20:07.673Z,28.50
2022-08-29T18:22:35.348Z,28.50
2022-08-29T18:25:07.264Z,28.60
2022-08-29T18:27:33.982Z,28.80
2022-08-29T18:30:03.830Z,29.10
2022-08-29T18:32:37.205Z,29.30
2022-08-29T18:35:05.030Z,29.50
2022-08-29T18:37:31.772Z,29.40
2022-08-29T18:39:58.748Z,29.60
2022-08-29T18:42:39.918Z,29.60
2022-08-29T18:45:08.195Z,29.80
2022-08-29T18:47:34.932Z,29.90
2022-08-29T18:50:25.254Z,29.90
2022-08-29T18:52:53.142Z,30.00
2022-08-29T18:55:20.483Z,30.20
2022-08-29T18:57:48.158Z,30.30
2022-08-29T19:00:16.059Z,30.50
2022-08-29T19:02:43.032Z,30.60
2022-08-29T19:05:10.361Z,30.80
2022-08-29T19:07:37.374Z,31.00
2022-08-29T19:10:05.779Z,31.20
2022-08-29T19:12:32.650Z,31.30
2022-08-29T19:15:00.116Z,31.50
2022-08-29T19:17:26.984Z,31.60
2022-08-29T19:20:12.385Z,31.70
2022-08-29T19:22:39.428Z,31.80
2022-08-29T19:25:09.030Z,31.80
2022-08-29T19:27:43.634Z,32.00
2022-08-29T19:30:13.457Z,32.10
2022-08-29T19:32:40.402Z,32.40
2022-08-29T19:35:07.969Z,32.40
2022-08-29T19:37:34.698Z,32.70
2022-08-29T19:40:02.044Z,32.80
2022-08-29T19:42:28.729Z,33.20
2022-08-29T19:44:55.491Z,33.40
2022-08-29T19:47:23.514Z,33.60
2022-08-29T19:49:51.010Z,33.70
2022-08-29T19:52:17.988Z,33.70
2022-08-29T19:54:44.745Z,33.60
2022-08-29T19:57:13.389Z,33.70
2022-08-29T19:59:41.474Z,33.70
2022-08-29T20:02:09.418Z,33.90
2022-08-29T20:04:36.347Z,33.90
2022-08-29T20:07:05.466Z,34.30
2022-08-29T20:09:32.302Z,34.50
2022-08-29T20:11:59.389Z,34.90
2022-08-29T20:14:26.160Z,34.50
2022-08-29T20:16:53.129Z,34.50
2022-08-29T20:19:21.240Z,35.30
2022-08-29T20:21:49.118Z,35.10
2022-08-29T20:24:16.893Z,35.00
2022-08-29T20:26:44.634Z,35.30
2022-08-29T20:29:12.166Z,35.20
2022-08-29T20:31:39.542Z,35.30
2022-08-29T20:34:06.593Z,35.50
2022-08-29T20:36:51.820Z,35.90
2022-08-29T20:39:20.931Z,36.00
2022-08-29T20:41:55.233Z,36.60
2022-08-29T20:44:25.100Z,36.40
2022-08-29T20:46:52.360Z,36.30
2022-08-29T20:49:22.505Z,36.60
2022-08-29T20:51:50.591Z,36.50
2022-08-29T20:54:20.635Z,37.30
2022-08-29T20:56:48.560Z,38.00
2022-08-29T20:59:15.836Z,37.70
2022-08-29T21:01:43.565Z,37.70
2022-08-29T21:04:30.453Z,37.60
2022-08-29T21:07:01.038Z,37.40
2022-08-29T21:09:28.714Z,37.40
2022-08-29T21:11:56.152Z,37.50
2022-08-29T21:14:23.517Z,37.50
2022-08-29T21:16:51.992Z,37.50
2022-08-29T21:19:19.254Z,37.60
2022-08-29T21:21:46.906Z,37.70
2022-08-29T21:24:13.653Z,38.20
2022-08-29T21:26:40.479Z,39.00
2022-08-29T21:29:08.399Z,38.90
2022-08-29T21:31:35.666Z,39.00
2022-08-29T21:34:06.770Z,39.00
2022-08-29T21:36:35.843Z,38.70
2022-08-29T21:39:03.741Z,38.80
2022-08-29T21:41:31.991Z,39.10
2022-08-29T21:43:58.966Z,39.40
2022-08-29T21:46:31.544Z,39.80
2022-08-29T21:49:02.922Z,40.00
2022-08-29T21:51:30.791Z,40.60
2022-08-29T21:53:58.484Z,40.40
2022-08-29T21:56:27.701Z,41.00
2022-08-29T21:58:55.971Z,40.50
2022-08-29T22:01:27.544Z,40.50
2022-08-29T22:03:55.472Z,40.50
2022-08-29T22:06:24.466Z,40.30
2022-08-29T22:08:55.211Z,40.10
2022-08-29T22:11:37.170Z,40.00
2022-08-29T22:14:06.487Z,40.00
2022-08-29T22:16:33.604Z,39.80
2022-08-29T22:19:02.969Z,40.30
2022-08-29T22:21:33.193Z,41.90
2022-08-29T22:24:01.185Z,42.30
2022-08-29T22:26:29.112Z,42.90
2022-08-29T22:28:56.682Z,42.20
2022-08-29T22:31:24.014Z,42.00
2022-08-29T22:33:51.440Z,42.60
2022-08-29T22:36:19.251Z,42.80
2022-08-29T22:38:47.540Z,42.20
2022-08-29T22:41:22.335Z,41.80
2022-08-29T22:43:54.704Z,41.40
2022-08-29T22:46:36.098Z,41.30
2022-08-29T22:49:02.951Z,41.10
2022-08-29T22:51:29.676Z,41.60
2022-08-29T22:54:14.865Z,41.70
2022-08-29T22:56:43.550Z,41.60
2022-08-29T22:59:10.836Z,41.30
2022-08-29T23:01:42.756Z,41.50
2022-08-29T23:04:10.256Z,41.80
2022-08-29T23:06:37.015Z,41.60
2022-08-29T23:09:05.162Z,41.70
2022-08-29T23:11:32.495Z,42.30
2022-08-29T23:13:59.231Z,42.30
2022-08-29T23:16:26.255Z,42.10
2022-08-29T23:18:53.339Z,41.90
2022-08-29T23:21:22.812Z,42.10
2022-08-29T23:23:50.852Z,42.20
2022-08-29T23:26:18.163Z,42.60
2022-08-29T23:28:45.677Z,43.00
2022-08-29T23:31:13.655Z,43.70
2022-08-29T23:33:40.641Z,43.00
2022-08-29T23:36:07.782Z,43.40
2022-08-29T23:38:34.503Z,43.00
2022-08-29T23:41:02.123Z,43.30
2022-08-29T23:43:30.660Z,43.20
2022-08-29T23:46:04.667Z,44.50
2022-08-29T23:48:32.490Z,45.40
2022-08-29T23:51:00.135Z,44.40
2022-08-29T23:53:26.960Z,43.60
2022-08-29T23:55:53.969Z,43.10
2022-08-29T23:58:20.699Z,42.90
